sensor_id;sensor_type;location;lat;lon;timestamp;temperature;humidity
7900;DHT22;3995;50.856;4.404;2022-11-11T00:00:48;15.70;56.80
7900;DHT22;3995;50.856;4.404;2022-11-11T00:03:15;15.70;56.80
7900;DHT22;3995;50.856;4.404;2022-11-11T00:05:43;15.70;56.70
7900;DHT22;3995;50.856;4.404;2022-11-11T00:08:10;15.70;56.60
7900;DHT22;3995;50.856;4.404;2022-11-11T00:10:39;15.60;56.50
7900;DHT22;3995;50.856;4.404;2022-11-11T00:13:06;15.60;56.50
7900;DHT22;3995;50.856;4.404;2022-11-11T00:15:37;15.60;56.70
7900;DHT22;3995;50.856;4.404;2022-11-11T00:18:04;15.60;56.60
7900;DHT22;3995;50.856;4.404;2022-11-11T00:20:49;15.60;56.60
7900;DHT22;3995;50.856;4.404;2022-11-11T00:23:34;15.60;56.70
7900;DHT22;3995;50.856;4.404;2022-11-11T00:26:20;15.60;56.60
7900;DHT22;3995;50.856;4.404;2022-11-11T00:28:47;15.60;56.60
7900;DHT22;3995;50.856;4.404;2022-11-11T00:31:14;15.60;56.60
7900;DHT22;3995;50.856;4.404;2022-11-11T00:33:42;15.60;56.60
7900;DHT22;3995;50.856;4.404;2022-11-11T00:36:10;15.60;56.50
7900;DHT22;3995;50.856;4.404;2022-11-11T00:38:36;15.60;56.50
7900;DHT22;3995;50.856;4.404;2022-11-11T00:41:13;15.60;56.60
7900;DHT22;3995;50.856;4.404;2022-11-11T00:43:43;15.60;56.50
7900;DHT22;3995;50.856;4.404;2022-11-11T00:46:10;15.60;56.50
7900;DHT22;3995;50.856;4.404;2022-11-11T00:48:55;15.60;56.60
7900;DHT22;3995;50.856;4.404;2022-11-11T00:51:40;15.60;56.60
7900;DHT22;3995;50.856;4.404;2022-11-11T00:54:07;15.60;56.60
7900;DHT22;3995;50.856;4.404;2022-11-11T00:56:35;15.60;56.60
7900;DHT22;3995;50.856;4.404;2022-11-11T00:59:04;15.60;56.60
7900;DHT22;3995;50.856;4.404;2022-11-11T01:01:32;15.60;56.60
7900;DHT22;3995;50.856;4.404;2022-11-11T01:04:00;15.60;56.40
7900;DHT22;3995;50.856;4.404;2022-11-11T01:06:28;15.60;56.50
7900;DHT22;3995;50.856;4.404;2022-11-11T01:08:55;15.60;56.50
7900;DHT22;3995;50.856;4.404;2022-11-11T01:11:23;15.60;56.40
7900;DHT22;3995;50.856;4.404;2022-11-11T01:13:51;15.70;56.60
7900;DHT22;3995;50.856;4.404;2022-11-11T01:16:22;15.70;56.60
7900;DHT22;3995;50.856;4.404;2022-11-11T01:18:50;15.70;56.40
7900;DHT22;3995;50.856;4.404;2022-11-11T01:21:19;15.70;56.40
7900;DHT22;3995;50.856;4.404;2022-11-11T01:23:47;15.70;56.30
7900;DHT22;3995;50.856;4.404;2022-11-11T01:26:17;15.70;56.30
7900;DHT22;3995;50.856;4.404;2022-11-11T01:28:47;15.70;56.30
7900;DHT22;3995;50.856;4.404;2022-11-11T01:31:16;15.60;56.20
7900;DHT22;3995;50.856;4.404;2022-11-11T01:33:45;15.70;56.30
7900;DHT22;3995;50.856;4.404;2022-11-11T01:36:13;15.70;56.30
7900;DHT22;3995;50.856;4.404;2022-11-11T01:38:41;15.70;56.30
7900;DHT22;3995;50.856;4.404;2022-11-11T01:41:12;15.70;56.20
7900;DHT22;3995;50.856;4.404;2022-11-11T01:43:59;15.70;56.20
7900;DHT22;3995;50.856;4.404;2022-11-11T01:46:33;15.60;56.10
7900;DHT22;3995;50.856;4.404;2022-11-11T01:49:14;15.70;56.10
7900;DHT22;3995;50.856;4.404;2022-11-11T01:51:48;15.60;56.00
7900;DHT22;3995;50.856;4.404;2022-11-11T01:54:20;15.60;56.20
7900;DHT22;3995;50.856;4.404;2022-11-11T01:56:51;15.60;56.20
7900;DHT22;3995;50.856;4.404;2022-11-11T01:59:20;15.60;56.10
7900;DHT22;3995;50.856;4.404;2022-11-11T02:01:48;15.60;56.20
7900;DHT22;3995;50.856;4.404;2022-11-11T02:04:18;15.60;56.00
7900;DHT22;3995;50.856;4.404;2022-11-11T02:07:06;15.60;55.90
7900;DHT22;3995;50.856;4.404;2022-11-11T02:09:36;15.60;56.00
7900;DHT22;3995;50.856;4.404;2022-11-11T02:12:08;15.60;56.00
7900;DHT22;3995;50.856;4.404;2022-11-11T02:14:55;15.60;56.00
7900;DHT22;3995;50.856;4.404;2022-11-11T02:17:23;15.60;56.00
7900;DHT22;3995;50.856;4.404;2022-11-11T02:19:55;15.60;56.00
7900;DHT22;3995;50.856;4.404;2022-11-11T02:22:28;15.60;56.00
7900;DHT22;3995;50.856;4.404;2022-11-11T02:25:00;15.60;56.00
7900;DHT22;3995;50.856;4.404;2022-11-11T02:27:30;15.60;55.90
7900;DHT22;3995;50.856;4.404;2022-11-11T02:29:59;15.60;55.80
7900;DHT22;3995;50.856;4.404;2022-11-11T02:32:27;15.60;55.90
7900;DHT22;3995;50.856;4.404;2022-11-11T02:34:54;15.60;55.90
7900;DHT22;3995;50.856;4.404;2022-11-11T02:37:22;15.60;55.90
7900;DHT22;3995;50.856;4.404;2022-11-11T02:39:53;15.60;55.90
7900;DHT22;3995;50.856;4.404;2022-11-11T02:42:23;15.60;55.80
7900;DHT22;3995;50.856;4.404;2022-11-11T02:44:51;15.60;55.90
7900;DHT22;3995;50.856;4.404;2022-11-11T02:47:23;15.60;55.90
7900;DHT22;3995;50.856;4.404;2022-11-11T02:49:51;15.50;55.80
7900;DHT22;3995;50.856;4.404;2022-11-11T02:52:18;15.60;56.60
7900;DHT22;3995;50.856;4.404;2022-11-11T02:54:45;15.60;56.00
7900;DHT22;3995;50.856;4.404;2022-11-11T02:57:13;15.60;56.10
7900;DHT22;3995;50.856;4.404;2022-11-11T02:59:43;15.60;56.00
7900;DHT22;3995;50.856;4.404;2022-11-11T03:02:10;15.60;55.90
7900;DHT22;3995;50.856;4.404;2022-11-11T03:04:37;15.60;55.90
7900;DHT22;3995;50.856;4.404;2022-11-11T03:07:04;15.60;55.90
7900;DHT22;3995;50.856;4.404;2022-11-11T03:09:31;15.60;55.90
7900;DHT22;3995;50.856;4.404;2022-11-11T03:11:58;15.60;55.90
7900;DHT22;3995;50.856;4.404;2022-11-11T03:14:25;15.60;55.90
7900;DHT22;3995;50.856;4.404;2022-11-11T03:16:55;15.60;55.80
7900;DHT22;3995;50.856;4.404;2022-11-11T03:19:39;15.60;55.80
7900;DHT22;3995;50.856;4.404;2022-11-11T03:22:06;15.60;55.80
7900;DHT22;3995;50.856;4.404;2022-11-11T03:24:32;15.60;55.70
7900;DHT22;3995;50.856;4.404;2022-11-11T03:27:17;15.60;55.60
7900;DHT22;3995;50.856;4.404;2022-11-11T03:29:44;15.60;55.70
7900;DHT22;3995;50.856;4.404;2022-11-11T03:32:12;15.60;55.60
7900;DHT22;3995;50.856;4.404;2022-11-11T03:34:39;15.60;55.60
7900;DHT22;3995;50.856;4.404;2022-11-11T03:37:08;15.60;55.70
7900;DHT22;3995;50.856;4.404;2022-11-11T03:39:52;15.60;55.60
7900;DHT22;3995;50.856;4.404;2022-11-11T03:42:19;15.60;55.60
7900;DHT22;3995;50.856;4.404;2022-11-11T03:44:47;15.60;55.50
7900;DHT22;3995;50.856;4.404;2022-11-11T03:47:16;15.60;55.60
7900;DHT22;3995;50.856;4.404;2022-11-11T03:49:43;15.60;55.70
7900;DHT22;3995;50.856;4.404;2022-11-11T03:52:11;15.60;55.70
7900;DHT22;3995;50.856;4.404;2022-11-11T03:54:38;15.50;55.60
7900;DHT22;3995;50.856;4.404;2022-11-11T03:57:06;15.50;55.60
7900;DHT22;3995;50.856;4.404;2022-11-11T03:59:50;15.50;55.70
7900;DHT22;3995;50.856;4.404;2022-11-11T04:02:19;15.50;55.80
7900;DHT22;3995;50.856;4.404;2022-11-11T04:05:03;15.50;55.80
7900;DHT22;3995;50.856;4.404;2022-11-11T04:07:53;15.50;55.70
7900;DHT22;3995;50.856;4.404;2022-11-11T04:10:40;15.40;55.70
7900;DHT22;3995;50.856;4.404;2022-11-11T04:13:07;15.50;55.80
7900;DHT22;3995;50.856;4.404;2022-11-11T04:15:52;15.50;55.80
7900;DHT22;3995;50.856;4.404;2022-11-11T04:18:36;15.50;56.40
7900;DHT22;3995;50.856;4.404;2022-11-11T04:21:21;15.50;55.70
7900;DHT22;3995;50.856;4.404;2022-11-11T04:24:06;15.40;55.70
7900;DHT22;3995;50.856;4.404;2022-11-11T04:26:48;15.40;55.70
7900;DHT22;3995;50.856;4.404;2022-11-11T04:29:15;15.40;55.70
7900;DHT22;3995;50.856;4.404;2022-11-11T04:31:53;15.40;55.70
7900;DHT22;3995;50.856;4.404;2022-11-11T04:34:39;15.40;55.60
7900;DHT22;3995;50.856;4.404;2022-11-11T04:37:06;15.40;55.70
7900;DHT22;3995;50.856;4.404;2022-11-11T04:39:33;15.40;55.70
7900;DHT22;3995;50.856;4.404;2022-11-11T04:42:17;15.50;55.70
7900;DHT22;3995;50.856;4.404;2022-11-11T04:44:45;15.40;55.60
7900;DHT22;3995;50.856;4.404;2022-11-11T04:47:29;15.50;55.70
7900;DHT22;3995;50.856;4.404;2022-11-11T04:49:58;15.40;55.60
7900;DHT22;3995;50.856;4.404;2022-11-11T04:52:25;15.50;55.70
7900;DHT22;3995;50.856;4.404;2022-11-11T04:54:52;15.50;55.70
7900;DHT22;3995;50.856;4.404;2022-11-11T04:57:39;15.50;55.70
7900;DHT22;3995;50.856;4.404;2022-11-11T05:00:07;15.40;55.70
7900;DHT22;3995;50.856;4.404;2022-11-11T05:02:34;15.40;55.60
7900;DHT22;3995;50.856;4.404;2022-11-11T05:05:20;15.40;55.60
7900;DHT22;3995;50.856;4.404;2022-11-11T05:07:47;15.40;55.50
7900;DHT22;3995;50.856;4.404;2022-11-11T05:10:32;15.40;55.40
7900;DHT22;3995;50.856;4.404;2022-11-11T05:12:59;15.40;55.70
7900;DHT22;3995;50.856;4.404;2022-11-11T05:15:41;15.40;55.60
7900;DHT22;3995;50.856;4.404;2022-11-11T05:18:25;15.40;55.60
7900;DHT22;3995;50.856;4.404;2022-11-11T05:21:15;15.40;55.60
7900;DHT22;3995;50.856;4.404;2022-11-11T05:23:49;15.40;55.70
7900;DHT22;3995;50.856;4.404;2022-11-11T05:26:33;15.30;55.70
7900;DHT22;3995;50.856;4.404;2022-11-11T05:29:02;15.30;55.70
7900;DHT22;3995;50.856;4.404;2022-11-11T05:31:29;15.30;55.60
7900;DHT22;3995;50.856;4.404;2022-11-11T05:33:56;15.30;55.50
7900;DHT22;3995;50.856;4.404;2022-11-11T05:36:25;15.30;55.40
7900;DHT22;3995;50.856;4.404;2022-11-11T05:38:52;15.40;55.50
7900;DHT22;3995;50.856;4.404;2022-11-11T05:41:19;15.40;55.50
7900;DHT22;3995;50.856;4.404;2022-11-11T05:43:46;15.30;55.40
7900;DHT22;3995;50.856;4.404;2022-11-11T05:46:13;15.30;55.40
7900;DHT22;3995;50.856;4.404;2022-11-11T05:48:40;15.30;55.40
7900;DHT22;3995;50.856;4.404;2022-11-11T05:51:21;15.30;55.50
7900;DHT22;3995;50.856;4.404;2022-11-11T05:53:56;15.30;55.50
7900;DHT22;3995;50.856;4.404;2022-11-11T05:56:23;15.40;55.40
7900;DHT22;3995;50.856;4.404;2022-11-11T05:58:50;15.30;55.30
7900;DHT22;3995;50.856;4.404;2022-11-11T06:01:17;15.30;55.20
7900;DHT22;3995;50.856;4.404;2022-11-11T06:03:45;15.30;55.30
7900;DHT22;3995;50.856;4.404;2022-11-11T06:06:12;15.30;55.30
7900;DHT22;3995;50.856;4.404;2022-11-11T06:08:39;15.30;55.30
7900;DHT22;3995;50.856;4.404;2022-11-11T06:11:08;15.30;55.30
7900;DHT22;3995;50.856;4.404;2022-11-11T06:13:35;15.30;55.30
7900;DHT22;3995;50.856;4.404;2022-11-11T06:16:03;15.30;55.20
7900;DHT22;3995;50.856;4.404;2022-11-11T06:18:31;15.30;55.20
7900;DHT22;3995;50.856;4.404;2022-11-11T06:20:58;15.30;55.20
7900;DHT22;3995;50.856;4.404;2022-11-11T06:23:27;15.30;55.30
7900;DHT22;3995;50.856;4.404;2022-11-11T06:25:54;15.30;55.30
7900;DHT22;3995;50.856;4.404;2022-11-11T06:28:44;15.30;55.30
7900;DHT22;3995;50.856;4.404;2022-11-11T06:31:13;15.30;55.30
7900;DHT22;3995;50.856;4.404;2022-11-11T06:33:41;15.30;55.30
7900;DHT22;3995;50.856;4.404;2022-11-11T06:36:10;15.30;55.20
7900;DHT22;3995;50.856;4.404;2022-11-11T06:38:38;15.30;55.20
7900;DHT22;3995;50.856;4.404;2022-11-11T06:41:05;15.30;55.20
7900;DHT22;3995;50.856;4.404;2022-11-11T06:43:32;15.30;55.20
7900;DHT22;3995;50.856;4.404;2022-11-11T06:46:01;15.30;55.10
7900;DHT22;3995;50.856;4.404;2022-11-11T06:48:29;15.30;55.70
7900;DHT22;3995;50.856;4.404;2022-11-11T06:51:00;15.30;55.10
7900;DHT22;3995;50.856;4.404;2022-11-11T06:53:28;15.30;55.60
7900;DHT22;3995;50.856;4.404;2022-11-11T06:55:56;15.30;55.10
7900;DHT22;3995;50.856;4.404;2022-11-11T06:58:23;15.20;55.70
7900;DHT22;3995;50.856;4.404;2022-11-11T07:00:50;15.20;55.10
7900;DHT22;3995;50.856;4.404;2022-11-11T07:03:20;15.20;55.10
7900;DHT22;3995;50.856;4.404;2022-11-11T07:05:48;15.30;55.20
7900;DHT22;3995;50.856;4.404;2022-11-11T07:08:17;15.30;55.20
7900;DHT22;3995;50.856;4.404;2022-11-11T07:10:46;15.30;55.20
7900;DHT22;3995;50.856;4.404;2022-11-11T07:13:14;15.30;55.10
7900;DHT22;3995;50.856;4.404;2022-11-11T07:15:42;15.20;55.00
7900;DHT22;3995;50.856;4.404;2022-11-11T07:18:10;15.20;55.20
7900;DHT22;3995;50.856;4.404;2022-11-11T07:20:39;15.20;55.30
7900;DHT22;3995;50.856;4.404;2022-11-11T07:23:06;15.20;55.30
7900;DHT22;3995;50.856;4.404;2022-11-11T07:25:34;15.20;55.30
7900;DHT22;3995;50.856;4.404;2022-11-11T07:28:01;15.20;55.30
7900;DHT22;3995;50.856;4.404;2022-11-11T07:30:28;15.20;55.40
7900;DHT22;3995;50.856;4.404;2022-11-11T07:32:55;15.20;55.40
7900;DHT22;3995;50.856;4.404;2022-11-11T07:35:23;15.20;55.50
7900;DHT22;3995;50.856;4.404;2022-11-11T07:37:51;15.30;55.50
7900;DHT22;3995;50.856;4.404;2022-11-11T07:40:19;15.30;55.40
7900;DHT22;3995;50.856;4.404;2022-11-11T07:42:46;15.20;55.30
7900;DHT22;3995;50.856;4.404;2022-11-11T07:45:13;15.20;55.40
7900;DHT22;3995;50.856;4.404;2022-11-11T07:47:42;15.20;55.50
7900;DHT22;3995;50.856;4.404;2022-11-11T07:50:11;15.20;55.50
7900;DHT22;3995;50.856;4.404;2022-11-11T07:52:38;15.20;55.60
7900;DHT22;3995;50.856;4.404;2022-11-11T07:55:08;15.20;55.60
7900;DHT22;3995;50.856;4.404;2022-11-11T07:57:35;15.20;55.70
7900;DHT22;3995;50.856;4.404;2022-11-11T08:00:04;15.20;55.70
7900;DHT22;3995;50.856;4.404;2022-11-11T08:02:32;15.20;55.80
7900;DHT22;3995;50.856;4.404;2022-11-11T08:04:59;15.20;55.70
7900;DHT22;3995;50.856;4.404;2022-11-11T08:07:26;15.20;55.70
7900;DHT22;3995;50.856;4.404;2022-11-11T08:09:53;15.20;55.70
7900;DHT22;3995;50.856;4.404;2022-11-11T08:12:22;15.20;55.80
7900;DHT22;3995;50.856;4.404;2022-11-11T08:15:07;15.20;55.80
7900;DHT22;3995;50.856;4.404;2022-11-11T08:17:38;15.10;55.80
7900;DHT22;3995;50.856;4.404;2022-11-11T08:20:07;15.10;55.80
7900;DHT22;3995;50.856;4.404;2022-11-11T08:22:35;15.10;55.80
7900;DHT22;3995;50.856;4.404;2022-11-11T08:25:04;15.10;55.90
7900;DHT22;3995;50.856;4.404;2022-11-11T08:27:33;15.10;55.80
7900;DHT22;3995;50.856;4.404;2022-11-11T08:30:00;15.10;55.90
7900;DHT22;3995;50.856;4.404;2022-11-11T08:32:27;15.10;56.00
7900;DHT22;3995;50.856;4.404;2022-11-11T08:34:55;15.00;56.00
7900;DHT22;3995;50.856;4.404;2022-11-11T08:37:22;15.00;56.00
7900;DHT22;3995;50.856;4.404;2022-11-11T08:39:50;15.00;56.10
7900;DHT22;3995;50.856;4.404;2022-11-11T08:42:18;15.00;56.10
7900;DHT22;3995;50.856;4.404;2022-11-11T08:44:47;15.00;56.20
7900;DHT22;3995;50.856;4.404;2022-11-11T08:47:14;15.00;56.20
7900;DHT22;3995;50.856;4.404;2022-11-11T08:49:41;15.00;56.30
7900;DHT22;3995;50.856;4.404;2022-11-11T08:52:08;15.00;56.40
7900;DHT22;3995;50.856;4.404;2022-11-11T08:54:35;15.00;56.40
7900;DHT22;3995;50.856;4.404;2022-11-11T08:57:03;15.00;56.60
7900;DHT22;3995;50.856;4.404;2022-11-11T08:59:30;15.00;56.60
7900;DHT22;3995;50.856;4.404;2022-11-11T09:02:00;15.00;56.60
7900;DHT22;3995;50.856;4.404;2022-11-11T09:04:27;15.00;56.70
7900;DHT22;3995;50.856;4.404;2022-11-11T09:06:55;15.00;56.70
7900;DHT22;3995;50.856;4.404;2022-11-11T09:09:22;15.00;56.60
7900;DHT22;3995;50.856;4.404;2022-11-11T09:11:49;15.10;56.80
7900;DHT22;3995;50.856;4.404;2022-11-11T09:14:16;15.10;56.70
7900;DHT22;3995;50.856;4.404;2022-11-11T09:16:44;15.10;56.60
7900;DHT22;3995;50.856;4.404;2022-11-11T09:19:13;15.20;56.70
7900;DHT22;3995;50.856;4.404;2022-11-11T09:21:40;15.20;56.60
7900;DHT22;3995;50.856;4.404;2022-11-11T09:24:08;15.30;56.50
7900;DHT22;3995;50.856;4.404;2022-11-11T09:26:35;15.30;56.50
7900;DHT22;3995;50.856;4.404;2022-11-11T09:29:02;15.40;56.50
7900;DHT22;3995;50.856;4.404;2022-11-11T09:31:29;15.40;56.40
7900;DHT22;3995;50.856;4.404;2022-11-11T09:33:57;15.40;56.20
7900;DHT22;3995;50.856;4.404;2022-11-11T09:36:26;15.50;56.20
7900;DHT22;3995;50.856;4.404;2022-11-11T09:38:53;15.50;56.00
7900;DHT22;3995;50.856;4.404;2022-11-11T09:41:27;15.50;56.00
7900;DHT22;3995;50.856;4.404;2022-11-11T09:43:58;15.60;56.00
7900;DHT22;3995;50.856;4.404;2022-11-11T09:46:33;15.60;56.00
7900;DHT22;3995;50.856;4.404;2022-11-11T09:49:19;15.60;55.90
7900;DHT22;3995;50.856;4.404;2022-11-11T09:51:54;15.70;55.80
7900;DHT22;3995;50.856;4.404;2022-11-11T09:54:32;15.70;56.00
7900;DHT22;3995;50.856;4.404;2022-11-11T09:57:03;15.70;55.80
7900;DHT22;3995;50.856;4.404;2022-11-11T09:59:38;15.70;55.80
7900;DHT22;3995;50.856;4.404;2022-11-11T10:02:17;15.70;55.60
7900;DHT22;3995;50.856;4.404;2022-11-11T10:04:51;15.80;55.60
7900;DHT22;3995;50.856;4.404;2022-11-11T10:07:27;15.80;55.60
7900;DHT22;3995;50.856;4.404;2022-11-11T10:10:03;15.80;55.50
7900;DHT22;3995;50.856;4.404;2022-11-11T10:12:36;15.80;55.30
7900;DHT22;3995;50.856;4.404;2022-11-11T10:15:11;15.90;55.40
7900;DHT22;3995;50.856;4.404;2022-11-11T10:17:44;15.90;55.30
7900;DHT22;3995;50.856;4.404;2022-11-11T10:20:19;15.90;55.70
7900;DHT22;3995;50.856;4.404;2022-11-11T10:22:54;15.90;55.10
7900;DHT22;3995;50.856;4.404;2022-11-11T10:25:26;15.90;54.90
7900;DHT22;3995;50.856;4.404;2022-11-11T10:27:55;15.90;55.00
7900;DHT22;3995;50.856;4.404;2022-11-11T10:30:25;15.90;54.80
7900;DHT22;3995;50.856;4.404;2022-11-11T10:32:56;15.90;54.70
7900;DHT22;3995;50.856;4.404;2022-11-11T10:35:26;15.90;54.60
7900;DHT22;3995;50.856;4.404;2022-11-11T10:38:10;15.90;54.40
7900;DHT22;3995;50.856;4.404;2022-11-11T10:40:47;16.00;54.50
7900;DHT22;3995;50.856;4.404;2022-11-11T10:43:23;16.00;54.60
7900;DHT22;3995;50.856;4.404;2022-11-11T10:45:57;16.00;54.40
7900;DHT22;3995;50.856;4.404;2022-11-11T10:48:33;16.00;54.30
7900;DHT22;3995;50.856;4.404;2022-11-11T10:51:04;16.00;54.30
7900;DHT22;3995;50.856;4.404;2022-11-11T10:53:38;16.00;54.40
7900;DHT22;3995;50.856;4.404;2022-11-11T10:56:15;16.00;54.40
7900;DHT22;3995;50.856;4.404;2022-11-11T10:58:48;16.00;54.40
7900;DHT22;3995;50.856;4.404;2022-11-11T11:01:31;16.00;54.30
7900;DHT22;3995;50.856;4.404;2022-11-11T11:04:03;16.00;54.20
7900;DHT22;3995;50.856;4.404;2022-11-11T11:06:34;16.00;54.00
7900;DHT22;3995;50.856;4.404;2022-11-11T11:09:12;16.00;53.90
7900;DHT22;3995;50.856;4.404;2022-11-11T11:11:47;16.10;54.10
7900;DHT22;3995;50.856;4.404;2022-11-11T11:14:18;16.10;53.90
7900;DHT22;3995;50.856;4.404;2022-11-11T11:16:49;16.10;53.90
7900;DHT22;3995;50.856;4.404;2022-11-11T11:19:21;16.10;53.80
7900;DHT22;3995;50.856;4.404;2022-11-11T11:21:51;16.10;53.90
7900;DHT22;3995;50.856;4.404;2022-11-11T11:24:21;16.10;54.00
7900;DHT22;3995;50.856;4.404;2022-11-11T11:26:50;16.10;54.00
7900;DHT22;3995;50.856;4.404;2022-11-11T11:29:26;16.10;54.00
7900;DHT22;3995;50.856;4.404;2022-11-11T11:31:55;16.20;54.10
7900;DHT22;3995;50.856;4.404;2022-11-11T11:34:43;16.10;54.00
7900;DHT22;3995;50.856;4.404;2022-11-11T11:37:10;16.20;54.00
7900;DHT22;3995;50.856;4.404;2022-11-11T11:39:40;16.10;54.20
7900;DHT22;3995;50.856;4.404;2022-11-11T11:42:07;16.10;54.20
7900;DHT22;3995;50.856;4.404;2022-11-11T11:44:37;16.10;54.30
7900;DHT22;3995;50.856;4.404;2022-11-11T11:47:17;16.20;54.50
7900;DHT22;3995;50.856;4.404;2022-11-11T11:50:01;16.20;54.60
7900;DHT22;3995;50.856;4.404;2022-11-11T11:52:41;16.20;54.60
7900;DHT22;3995;50.856;4.404;2022-11-11T11:55:18;16.20;54.70
7900;DHT22;3995;50.856;4.404;2022-11-11T11:57:55;16.30;54.70
7900;DHT22;3995;50.856;4.404;2022-11-11T12:00:30;16.20;54.60
7900;DHT22;3995;50.856;4.404;2022-11-11T12:03:30;16.30;54.60
7900;DHT22;3995;50.856;4.404;2022-11-11T12:06:06;16.30;54.50
7900;DHT22;3995;50.856;4.404;2022-11-11T12:08:46;16.30;54.80
7900;DHT22;3995;50.856;4.404;2022-11-11T12:11:21;16.30;54.60
7900;DHT22;3995;50.856;4.404;2022-11-11T12:14:06;16.30;54.60
7900;DHT22;3995;50.856;4.404;2022-11-11T12:16:41;16.40;54.70
7900;DHT22;3995;50.856;4.404;2022-11-11T12:19:31;16.40;54.60
7900;DHT22;3995;50.856;4.404;2022-11-11T12:22:06;16.40;54.60
7900;DHT22;3995;50.856;4.404;2022-11-11T12:24:47;16.40;54.60
7900;DHT22;3995;50.856;4.404;2022-11-11T12:27:22;16.40;54.60
7900;DHT22;3995;50.856;4.404;2022-11-11T12:30:02;16.50;54.70
7900;DHT22;3995;50.856;4.404;2022-11-11T12:33:01;16.50;54.80
7900;DHT22;3995;50.856;4.404;2022-11-11T12:35:42;16.50;54.50
7900;DHT22;3995;50.856;4.404;2022-11-11T12:38:33;16.50;54.50
7900;DHT22;3995;50.856;4.404;2022-11-11T12:41:10;16.60;54.60
7900;DHT22;3995;50.856;4.404;2022-11-11T12:43:49;16.60;54.50
7900;DHT22;3995;50.856;4.404;2022-11-11T12:46:25;16.60;54.40
7900;DHT22;3995;50.856;4.404;2022-11-11T12:49:02;16.60;54.40
7900;DHT22;3995;50.856;4.404;2022-11-11T12:51:52;16.60;54.00
7900;DHT22;3995;50.856;4.404;2022-11-11T12:54:27;16.70;53.60
7900;DHT22;3995;50.856;4.404;2022-11-11T12:57:03;16.60;53.50
7900;DHT22;3995;50.856;4.404;2022-11-11T13:00:00;16.60;53.60
7900;DHT22;3995;50.856;4.404;2022-11-11T13:02:44;16.70;53.60
7900;DHT22;3995;50.856;4.404;2022-11-11T13:05:19;16.70;53.80
7900;DHT22;3995;50.856;4.404;2022-11-11T13:08:14;16.60;53.60
7900;DHT22;3995;50.856;4.404;2022-11-11T13:10:52;16.70;53.50
7900;DHT22;3995;50.856;4.404;2022-11-11T13:13:36;16.70;53.50
7900;DHT22;3995;50.856;4.404;2022-11-11T13:16:09;16.70;53.30
7900;DHT22;3995;50.856;4.404;2022-11-11T13:18:43;16.70;53.10
7900;DHT22;3995;50.856;4.404;2022-11-11T13:21:14;16.70;52.60
7900;DHT22;3995;50.856;4.404;2022-11-11T13:23:42;16.70;52.50
7900;DHT22;3995;50.856;4.404;2022-11-11T13:26:24;16.60;52.40
7900;DHT22;3995;50.856;4.404;2022-11-11T13:29:02;16.70;52.50
7900;DHT22;3995;50.856;4.404;2022-11-11T13:31:39;16.70;52.60
7900;DHT22;3995;50.856;4.404;2022-11-11T13:34:10;16.70;52.60
7900;DHT22;3995;50.856;4.404;2022-11-11T13:36:41;16.60;52.60
7900;DHT22;3995;50.856;4.404;2022-11-11T13:39:23;16.70;52.40
7900;DHT22;3995;50.856;4.404;2022-11-11T13:41:53;16.70;52.80
7900;DHT22;3995;50.856;4.404;2022-11-11T13:44:25;16.70;52.30
7900;DHT22;3995;50.856;4.404;2022-11-11T13:47:02;16.70;52.30
7900;DHT22;3995;50.856;4.404;2022-11-11T13:49:34;16.70;52.10
7900;DHT22;3995;50.856;4.404;2022-11-11T13:52:03;16.70;52.00
7900;DHT22;3995;50.856;4.404;2022-11-11T13:54:33;16.70;52.10
7900;DHT22;3995;50.856;4.404;2022-11-11T13:57:06;16.70;52.00
7900;DHT22;3995;50.856;4.404;2022-11-11T13:59:37;16.70;52.00
7900;DHT22;3995;50.856;4.404;2022-11-11T14:02:30;16.70;52.10
7900;DHT22;3995;50.856;4.404;2022-11-11T14:05:20;16.80;52.20
7900;DHT22;3995;50.856;4.404;2022-11-11T14:07:53;16.70;52.20
7900;DHT22;3995;50.856;4.404;2022-11-11T14:10:47;16.70;52.40
7900;DHT22;3995;50.856;4.404;2022-11-11T14:13:42;16.70;52.30
7900;DHT22;3995;50.856;4.404;2022-11-11T14:16:11;16.70;52.30
7900;DHT22;3995;50.856;4.404;2022-11-11T14:18:45;16.70;52.80
7900;DHT22;3995;50.856;4.404;2022-11-11T14:21:47;16.70;52.80
7900;DHT22;3995;50.856;4.404;2022-11-11T14:24:22;16.80;52.80
7900;DHT22;3995;50.856;4.404;2022-11-11T14:26:57;16.70;53.00
7900;DHT22;3995;50.856;4.404;2022-11-11T14:29:29;16.70;52.90
7900;DHT22;3995;50.856;4.404;2022-11-11T14:32:28;16.70;53.00
7900;DHT22;3995;50.856;4.404;2022-11-11T14:35:26;16.80;52.70
7900;DHT22;3995;50.856;4.404;2022-11-11T14:38:05;16.80;52.40
7900;DHT22;3995;50.856;4.404;2022-11-11T14:40:37;16.70;52.40
7900;DHT22;3995;50.856;4.404;2022-11-11T14:43:33;16.70;52.70
7900;DHT22;3995;50.856;4.404;2022-11-11T14:46:07;16.80;52.40
7900;DHT22;3995;50.856;4.404;2022-11-11T14:52:04;16.80;51.60
7900;DHT22;3995;50.856;4.404;2022-11-11T14:57:48;16.70;51.80
7900;DHT22;3995;50.856;4.404;2022-11-11T15:00:18;16.70;51.90
7900;DHT22;3995;50.856;4.404;2022-11-11T15:02:49;16.70;51.60
7900;DHT22;3995;50.856;4.404;2022-11-11T15:05:22;16.70;51.60
7900;DHT22;3995;50.856;4.404;2022-11-11T15:07:59;16.70;51.60
7900;DHT22;3995;50.856;4.404;2022-11-11T15:10:44;16.70;51.80
7900;DHT22;3995;50.856;4.404;2022-11-11T15:13:41;16.70;51.70
7900;DHT22;3995;50.856;4.404;2022-11-11T15:16:19;16.70;51.70
7900;DHT22;3995;50.856;4.404;2022-11-11T15:19:10;16.70;51.90
7900;DHT22;3995;50.856;4.404;2022-11-11T15:21:45;16.70;51.80
7900;DHT22;3995;50.856;4.404;2022-11-11T15:24:26;16.70;52.20
7900;DHT22;3995;50.856;4.404;2022-11-11T15:27:00;16.70;52.10
7900;DHT22;3995;50.856;4.404;2022-11-11T15:30:08;16.60;52.10
7900;DHT22;3995;50.856;4.404;2022-11-11T15:32:49;16.70;52.10
7900;DHT22;3995;50.856;4.404;2022-11-11T15:35:38;16.60;52.30
7900;DHT22;3995;50.856;4.404;2022-11-11T15:38:11;16.60;52.20
7900;DHT22;3995;50.856;4.404;2022-11-11T15:40:45;16.60;52.40
7900;DHT22;3995;50.856;4.404;2022-11-11T15:43:18;16.60;52.50
7900;DHT22;3995;50.856;4.404;2022-11-11T15:45:49;16.50;52.50
7900;DHT22;3995;50.856;4.404;2022-11-11T15:48:21;16.60;52.60
7900;DHT22;3995;50.856;4.404;2022-11-11T15:50:49;16.60;52.60
7900;DHT22;3995;50.856;4.404;2022-11-11T15:53:22;16.50;52.80
7900;DHT22;3995;50.856;4.404;2022-11-11T15:55:55;16.60;52.60
7900;DHT22;3995;50.856;4.404;2022-11-11T15:58:27;16.60;52.80
7900;DHT22;3995;50.856;4.404;2022-11-11T16:00:55;16.50;52.70
7900;DHT22;3995;50.856;4.404;2022-11-11T16:03:28;16.50;52.80
7900;DHT22;3995;50.856;4.404;2022-11-11T16:05:56;16.50;52.80
7900;DHT22;3995;50.856;4.404;2022-11-11T16:08:23;16.50;52.90
7900;DHT22;3995;50.856;4.404;2022-11-11T16:10:57;16.40;52.90
7900;DHT22;3995;50.856;4.404;2022-11-11T16:13:28;16.50;53.00
7900;DHT22;3995;50.856;4.404;2022-11-11T16:16:00;16.40;52.80
7900;DHT22;3995;50.856;4.404;2022-11-11T16:18:33;16.40;52.90
7900;DHT22;3995;50.856;4.404;2022-11-11T16:21:06;16.40;52.90
7900;DHT22;3995;50.856;4.404;2022-11-11T16:23:34;16.40;53.00
7900;DHT22;3995;50.856;4.404;2022-11-11T16:26:05;16.40;53.00
7900;DHT22;3995;50.856;4.404;2022-11-11T16:28:38;16.40;53.00
7900;DHT22;3995;50.856;4.404;2022-11-11T16:31:29;16.30;53.00
7900;DHT22;3995;50.856;4.404;2022-11-11T16:34:37;16.40;53.00
7900;DHT22;3995;50.856;4.404;2022-11-11T16:37:07;16.40;53.20
7900;DHT22;3995;50.856;4.404;2022-11-11T16:39:35;16.30;53.50
7900;DHT22;3995;50.856;4.404;2022-11-11T16:42:14;16.30;53.50
7900;DHT22;3995;50.856;4.404;2022-11-11T16:44:46;16.30;53.50
7900;DHT22;3995;50.856;4.404;2022-11-11T16:47:40;16.30;53.60